Terminal Aerodrome Forecast
Issued by NWS Shreveport, LA

Home | Current Version | Previous Version | Text Only | Print | Product List | Glossary On
Versions: 1 2 3 4 5 6 7 8 9 10 11 12 13 14 15 16 17 18 19
000
FTUS44 KSHV 280014 AAA
TAFMLU
TAF AMD
KMLU 280014Z 2800/2824 VRB04KT P6SM VCTS OVC060CB
      TEMPO 2800/2802 VRB15G25KT 3SM TSRA BR OVC020CB
     FM280400 15005KT P6SM SCT020 OVC035
      TEMPO 2809/2813 3SM BR OVC015
     FM281400 18008KT P6SM SCT030
     FM281800 20010KT P6SM VCTS BKN040CB=

USA.gov is the U.S. government's official web portal to all federal, state and local government web resources and services.